createdAt,value
2019-03-31T00:00:47.102Z,7.9
2019-03-31T00:01:48.491Z,7.9
2019-03-31T00:02:49.879Z,7.9
2019-03-31T00:03:51.441Z,7.9
2019-03-31T00:04:52.809Z,7.9
2019-03-31T00:05:54.042Z,7.9
2019-03-31T00:06:55.579Z,7.9
2019-03-31T00:07:56.956Z,7.9
2019-03-31T00:08:58.525Z,7.9
2019-03-31T00:10:00.101Z,7.9
2019-03-31T00:11:02.212Z,7.9
2019-03-31T00:12:03.753Z,7.9
2019-03-31T00:13:05.286Z,7.9
2019-03-31T00:14:06.673Z,7.9
2019-03-31T00:15:08.242Z,7.9
2019-03-31T00:16:09.813Z,7.9
2019-03-31T00:17:11.349Z,7.9
2019-03-31T00:18:12.740Z,7.9
2019-03-31T00:19:14.142Z,7.9
2019-03-31T00:20:15.687Z,7.9
2019-03-31T00:21:17.272Z,7.9
2019-03-31T00:22:18.809Z,7.9
2019-03-31T00:23:20.358Z,7.9
2019-03-31T00:24:21.435Z,7.9
2019-03-31T00:25:22.951Z,7.9
2019-03-31T00:26:24.338Z,7.9
2019-03-31T00:27:25.877Z,7.9
2019-03-31T00:28:27.420Z,7.9
2019-03-31T00:29:28.999Z,7.9
2019-03-31T00:30:30.557Z,7.9
2019-03-31T00:31:32.112Z,7.9
2019-03-31T00:32:33.712Z,7.8
2019-03-31T00:33:35.268Z,7.8
2019-03-31T00:34:36.494Z,7.9
2019-03-31T00:35:38.033Z,7.8
2019-03-31T00:36:39.589Z,7.9
2019-03-31T00:37:41.137Z,7.9
2019-03-31T00:38:42.739Z,7.9
2019-03-31T00:39:44.256Z,7.9
2019-03-31T00:40:45.576Z,7.9
2019-03-31T00:41:46.979Z,7.9
2019-03-31T00:42:48.207Z,7.9
2019-03-31T00:43:49.284Z,7.9
2019-03-31T00:44:50.588Z,7.9
2019-03-31T00:45:52.109Z,7.9
2019-03-31T00:46:53.661Z,7.9
2019-03-31T00:47:55.184Z,7.9
2019-03-31T00:48:56.728Z,7.9
2019-03-31T00:49:58.266Z,7.9
2019-03-31T00:50:59.832Z,7.9
2019-03-31T00:52:01.379Z,7.9
2019-03-31T00:53:02.918Z,7.9
2019-03-31T00:54:04.478Z,7.8
2019-03-31T00:55:06.012Z,7.8
2019-03-31T00:56:07.550Z,7.8
2019-03-31T00:57:09.062Z,7.8
2019-03-31T00:58:10.437Z,7.8
2019-03-31T00:59:11.978Z,7.8
2019-03-31T01:00:13.447Z,7.8
2019-03-31T01:01:14.981Z,7.8
2019-03-31T01:02:16.502Z,7.8
2019-03-31T01:03:17.878Z,7.8
2019-03-31T01:04:19.270Z,7.8
2019-03-31T01:05:20.797Z,7.9
2019-03-31T01:06:22.408Z,7.9
2019-03-31T01:07:23.784Z,7.9
2019-03-31T01:08:25.177Z,7.9
2019-03-31T01:09:26.747Z,7.9
2019-03-31T01:10:28.134Z,7.9
2019-03-31T01:11:29.506Z,7.9
2019-03-31T01:12:30.919Z,7.9
2019-03-31T01:13:32.305Z,7.9
2019-03-31T01:14:33.940Z,7.8
2019-03-31T01:15:35.447Z,7.8
2019-03-31T01:16:37.000Z,7.7
2019-03-31T01:17:38.473Z,7.7
2019-03-31T01:18:39.691Z,7.6
2019-03-31T01:19:41.085Z,7.5
2019-03-31T01:20:42.513Z,7.4
2019-03-31T01:21:43.741Z,7.3
2019-03-31T01:22:45.032Z,7.2
2019-03-31T01:23:46.258Z,7.1
2019-03-31T01:24:47.619Z,7.2
2019-03-31T01:25:49.197Z,7.1
2019-03-31T01:26:50.607Z,7.1
2019-03-31T01:27:52.027Z,7.1
2019-03-31T01:28:53.404Z,7.2
2019-03-31T01:29:54.875Z,7.2
2019-03-31T01:30:56.274Z,7.1
2019-03-31T01:31:57.659Z,7.2
2019-03-31T01:32:58.881Z,7.2
2019-03-31T01:34:00.239Z,7.2
2019-03-31T01:35:01.686Z,7.2
2019-03-31T01:36:03.234Z,7.2
2019-03-31T01:37:04.788Z,7.1
2019-03-31T01:38:06.365Z,7.1
2019-03-31T01:39:07.881Z,7.1
2019-03-31T01:40:09.410Z,7.2
2019-03-31T01:41:10.869Z,7.1
2019-03-31T01:42:12.418Z,7.1
2019-03-31T01:43:13.628Z,7.2
2019-03-31T01:44:15.147Z,7.2
2019-03-31T01:45:16.534Z,7.2
2019-03-31T01:46:18.059Z,7.2
2019-03-31T01:47:19.526Z,7.2
2019-03-31T01:48:21.051Z,7.2
2019-03-31T01:49:22.582Z,7.2
2019-03-31T01:50:24.045Z,7.2
2019-03-31T01:51:25.598Z,7.1
2019-03-31T01:52:27.137Z,7.2
2019-03-31T01:53:28.337Z,7.2
2019-03-31T01:54:29.878Z,7.1
2019-03-31T01:55:31.252Z,7.2
2019-03-31T01:56:32.618Z,7.1
2019-03-31T01:57:33.988Z,7.2
2019-03-31T01:58:35.506Z,7.2
2019-03-31T01:59:37.037Z,7.2
2019-03-31T02:00:38.408Z,7.2
2019-03-31T02:01:39.799Z,7.2
2019-03-31T02:02:41.053Z,7.2
2019-03-31T02:03:42.641Z,7.1
2019-03-31T02:04:44.208Z,7.2
2019-03-31T02:05:45.602Z,7.2
2019-03-31T02:06:47.130Z,7.1
2019-03-31T02:07:48.663Z,7.2
2019-03-31T02:08:50.316Z,7.1
2019-03-31T02:09:51.694Z,7.1
2019-03-31T02:10:53.219Z,7.1
2019-03-31T02:11:54.587Z,7.2
2019-03-31T02:12:55.806Z,7.2
2019-03-31T02:13:57.009Z,7.2
2019-03-31T02:14:58.370Z,7.2
2019-03-31T02:15:59.771Z,7.2
2019-03-31T02:17:01.354Z,7.2
2019-03-31T02:18:02.878Z,7.2
2019-03-31T02:19:04.257Z,7.2
2019-03-31T02:20:05.669Z,7.2
2019-03-31T02:21:07.038Z,7.2
2019-03-31T02:22:08.588Z,7.2
2019-03-31T02:23:10.096Z,7.2
2019-03-31T02:24:11.294Z,7.2
2019-03-31T02:25:12.874Z,7.2
2019-03-31T02:26:14.262Z,7.2
2019-03-31T02:27:15.780Z,7.2
2019-03-31T02:28:17.330Z,7.2
2019-03-31T02:29:18.866Z,7.2
2019-03-31T02:30:20.256Z,7.2
2019-03-31T02:31:21.773Z,7.2
2019-03-31T02:32:26.366Z,7.2
2019-03-31T02:33:27.767Z,7.2
2019-03-31T02:34:29.372Z,7.2
2019-03-31T02:35:30.939Z,7.2
2019-03-31T02:36:32.343Z,7.2
2019-03-31T02:37:33.728Z,7.2
2019-03-31T02:38:35.143Z,7.2
2019-03-31T02:39:36.690Z,7.2
2019-03-31T02:40:38.260Z,7.2
2019-03-31T02:41:39.828Z,7.2
2019-03-31T02:42:41.409Z,7.2
2019-03-31T02:43:42.956Z,7.2
2019-03-31T02:44:44.564Z,7.2
2019-03-31T02:45:45.852Z,7.3
2019-03-31T02:46:47.388Z,7.3
2019-03-31T02:47:48.819Z,7.3
2019-03-31T02:48:50.497Z,7.3
2019-03-31T02:49:52.056Z,7.4
2019-03-31T02:50:53.639Z,7.4
2019-03-31T02:51:55.075Z,7.5
2019-03-31T02:52:56.489Z,7.5
2019-03-31T02:53:58.036Z,7.6
2019-03-31T02:54:59.563Z,7.6
2019-03-31T02:56:01.095Z,7.6
2019-03-31T02:57:02.493Z,7.6
2019-03-31T02:58:04.049Z,7.6
2019-03-31T02:59:05.648Z,7.5
2019-03-31T03:00:07.193Z,7.6
2019-03-31T03:01:08.838Z,7.6
2019-03-31T03:02:10.074Z,7.7
2019-03-31T03:03:11.489Z,7.8
2019-03-31T03:04:12.871Z,7.8
2019-03-31T03:05:21.718Z,7.9
2019-03-31T03:06:23.416Z,7.9
2019-03-31T03:07:25.215Z,7.9
2019-03-31T03:08:26.773Z,7.9
2019-03-31T03:09:28.315Z,7.9
2019-03-31T03:10:29.857Z,7.9
2019-03-31T03:11:31.384Z,7.9
2019-03-31T03:12:32.942Z,7.8
2019-03-31T03:13:34.479Z,7.8
2019-03-31T03:14:36.025Z,7.8
2019-03-31T03:15:37.428Z,7.8
2019-03-31T03:16:39.049Z,7.8
2019-03-31T03:17:40.608Z,7.8
2019-03-31T03:18:42.221Z,7.7
2019-03-31T03:19:43.764Z,7.7
2019-03-31T03:20:45.299Z,7.6
2019-03-31T03:21:46.835Z,7.6
2019-03-31T03:22:48.243Z,7.6
2019-03-31T03:23:49.797Z,7.5
2019-03-31T03:24:51.146Z,7.5
2019-03-31T03:25:58.288Z,7.4
2019-03-31T03:26:59.838Z,7.3
2019-03-31T03:28:01.519Z,7.3
2019-03-31T03:29:03.119Z,7.2
2019-03-31T03:30:04.678Z,7.2
2019-03-31T03:31:18.169Z,7.2
2019-03-31T03:32:19.833Z,7.2
2019-03-31T03:33:21.998Z,7.2
2019-03-31T03:34:23.449Z,7.2
2019-03-31T03:35:24.940Z,7.2
2019-03-31T03:36:26.503Z,7.2
2019-03-31T03:37:27.994Z,7.2
2019-03-31T03:38:29.544Z,7.2
2019-03-31T03:39:31.157Z,7.2
2019-03-31T03:40:32.695Z,7.2
2019-03-31T03:41:34.271Z,7.2
2019-03-31T03:42:35.986Z,7.2
2019-03-31T03:44:03.548Z,7.2
2019-03-31T03:45:05.134Z,7.2
2019-03-31T03:46:06.665Z,7.2
2019-03-31T03:47:08.087Z,7.2
2019-03-31T03:48:09.773Z,7.2
2019-03-31T03:49:13.076Z,7.2
2019-03-31T03:50:14.832Z,7.1
2019-03-31T03:51:16.415Z,7.2
2019-03-31T03:52:17.979Z,7.1
2019-03-31T03:53:19.218Z,7.2
2019-03-31T03:54:20.789Z,7.2
2019-03-31T03:55:22.380Z,7.2
2019-03-31T03:56:28.703Z,7.1
2019-03-31T03:57:30.449Z,7.2
2019-03-31T03:58:32.017Z,7.2
2019-03-31T03:59:33.413Z,7.1
2019-03-31T04:00:35.013Z,7.2
2019-03-31T04:01:36.570Z,7.1
2019-03-31T04:02:37.971Z,7.1
2019-03-31T04:03:39.365Z,7.1
2019-03-31T04:04:40.922Z,7.1
2019-03-31T04:05:42.322Z,7.1
2019-03-31T04:06:43.726Z,7.1
2019-03-31T04:07:45.257Z,7.1
2019-03-31T04:08:46.808Z,7.1
2019-03-31T04:09:48.344Z,7.1
2019-03-31T04:10:49.900Z,7.1
2019-03-31T04:11:51.471Z,7.1
2019-03-31T04:12:53.179Z,7.1
2019-03-31T04:13:54.755Z,7.1
2019-03-31T04:14:56.334Z,7.1
2019-03-31T04:15:57.915Z,7.1
2019-03-31T04:16:59.345Z,7.1
2019-03-31T04:18:00.841Z,7.1
2019-03-31T04:19:02.398Z,7.1
2019-03-31T04:20:03.683Z,7.1
2019-03-31T04:21:05.088Z,7.1
2019-03-31T04:22:06.762Z,7.1
2019-03-31T04:23:08.349Z,7.1
2019-03-31T04:24:09.947Z,7.1
2019-03-31T04:25:11.349Z,7.1
2019-03-31T04:26:12.580Z,7.1
2019-03-31T04:27:19.375Z,7.1
2019-03-31T04:28:20.849Z,7.1
2019-03-31T04:29:21.769Z,7.1
2019-03-31T04:30:23.195Z,7.2
2019-03-31T04:31:24.610Z,7.2
2019-03-31T04:32:25.996Z,7.2
2019-03-31T04:33:27.540Z,7.2
2019-03-31T04:34:29.100Z,7.2
2019-03-31T04:35:30.659Z,7.2
2019-03-31T04:36:32.222Z,7.3
2019-03-31T04:37:33.786Z,7.3
2019-03-31T04:38:35.376Z,7.4
2019-03-31T04:39:36.951Z,7.4
2019-03-31T04:40:38.510Z,7.5
2019-03-31T04:41:39.903Z,7.6
2019-03-31T04:42:41.381Z,7.7
2019-03-31T04:43:42.964Z,7.8
2019-03-31T04:44:44.518Z,7.9
2019-03-31T04:45:46.056Z,7.9
2019-03-31T04:46:47.605Z,7.9
2019-03-31T04:47:49.241Z,7.3
2019-03-31T04:48:50.639Z,7.4
2019-03-31T04:49:52.157Z,7.5
2019-03-31T04:50:53.894Z,7.6
2019-03-31T04:51:55.251Z,7.7
2019-03-31T04:52:56.650Z,7.8
2019-03-31T04:53:58.194Z,7.9
2019-03-31T04:54:59.730Z,7.9
2019-03-31T04:56:01.276Z,7.3
2019-03-31T04:57:06.120Z,7.4
2019-03-31T04:58:07.654Z,7.5
2019-03-31T04:59:09.037Z,7.6
2019-03-31T05:00:10.562Z,7.7
2019-03-31T05:01:12.111Z,7.7
2019-03-31T05:02:13.658Z,7.8
2019-03-31T05:03:15.196Z,7.8
2019-03-31T05:04:16.407Z,7.8
2019-03-31T05:05:17.791Z,7.8
2019-03-31T05:06:19.310Z,7.9
2019-03-31T05:07:20.549Z,7.9
2019-03-31T05:08:22.129Z,7.9
2019-03-31T05:09:23.656Z,7.9
2019-03-31T05:10:25.029Z,7.9
2019-03-31T05:11:26.251Z,7.9
2019-03-31T05:12:27.800Z,7.9
2019-03-31T05:13:29.424Z,7.9
2019-03-31T05:14:30.788Z,7.9
2019-03-31T05:15:32.330Z,7.9
2019-03-31T05:16:33.868Z,7.9
2019-03-31T05:17:37.299Z,7.9
2019-03-31T05:18:38.838Z,7.9
2019-03-31T05:19:40.388Z,7.9
2019-03-31T05:20:41.448Z,7.9
2019-03-31T05:21:42.980Z,7.9
2019-03-31T05:22:44.348Z,7.9
2019-03-31T05:23:45.897Z,7.9
2019-03-31T05:24:47.112Z,7.9
2019-03-31T05:25:48.496Z,7.9
2019-03-31T05:26:50.028Z,7.9
2019-03-31T05:27:51.537Z,7.9
2019-03-31T05:28:53.068Z,7.9
2019-03-31T05:29:54.694Z,7.9
2019-03-31T05:30:56.330Z,7.9
2019-03-31T05:31:57.868Z,7.9
2019-03-31T05:32:59.240Z,7.9
2019-03-31T05:34:00.797Z,7.9
2019-03-31T05:35:02.177Z,7.9
2019-03-31T05:36:03.552Z,7.9
2019-03-31T05:37:05.704Z,7.9
2019-03-31T05:38:07.279Z,7.9
2019-03-31T05:39:23.519Z,7.9
2019-03-31T05:40:25.061Z,7.9
2019-03-31T05:41:26.459Z,7.9
2019-03-31T05:42:28.066Z,7.9
2019-03-31T05:43:29.282Z,7.9
2019-03-31T05:44:30.888Z,7.9
2019-03-31T05:45:32.104Z,7.9
2019-03-31T05:46:33.477Z,7.9
2019-03-31T05:47:35.025Z,7.9
2019-03-31T05:48:36.404Z,7.9
2019-03-31T05:49:37.928Z,7.9
2019-03-31T05:50:39.472Z,7.8
2019-03-31T05:51:40.843Z,7.8
2019-03-31T05:52:42.384Z,7.8
2019-03-31T05:53:43.923Z,7.7
2019-03-31T05:54:45.364Z,7.7
2019-03-31T05:55:46.463Z,7.7
2019-03-31T05:56:47.856Z,7.7
2019-03-31T05:57:49.230Z,7.7
2019-03-31T05:58:50.597Z,7.7
2019-03-31T05:59:52.134Z,7.7
2019-03-31T06:00:53.592Z,7.7
2019-03-31T06:01:54.974Z,7.7
2019-03-31T06:02:56.530Z,7.7
2019-03-31T06:03:57.994Z,7.8
2019-03-31T06:04:59.354Z,7.9
2019-03-31T06:06:00.751Z,7.9
2019-03-31T06:07:02.120Z,7.9
2019-03-31T06:08:03.705Z,7.9
2019-03-31T06:09:05.127Z,7.9
2019-03-31T06:10:07.980Z,7.9
2019-03-31T06:11:09.513Z,7.9
2019-03-31T06:12:10.885Z,7.9
2019-03-31T06:13:12.431Z,7.9
2019-03-31T06:14:13.860Z,7.9
2019-03-31T06:15:15.268Z,7.9
2019-03-31T06:16:16.331Z,7.8
2019-03-31T06:17:17.708Z,7.8
2019-03-31T06:18:19.287Z,7.8
2019-03-31T06:19:20.658Z,7.8
2019-03-31T06:20:22.020Z,7.8
2019-03-31T06:21:23.463Z,7.8
2019-03-31T06:22:25.016Z,7.7
2019-03-31T06:23:26.557Z,7.7
2019-03-31T06:24:27.797Z,7.7
2019-03-31T06:25:28.969Z,7.7
2019-03-31T06:26:30.348Z,7.6
2019-03-31T06:27:31.870Z,7.6
2019-03-31T06:28:33.239Z,7.6
2019-03-31T06:29:34.639Z,7.6
2019-03-31T06:30:36.038Z,7.6
2019-03-31T06:31:37.472Z,7.6
2019-03-31T06:32:39.002Z,7.6
2019-03-31T06:33:40.562Z,7.6
2019-03-31T06:34:49.171Z,7.6
2019-03-31T06:35:50.718Z,7.7
2019-03-31T06:36:52.264Z,7.7
2019-03-31T06:37:53.636Z,7.7
2019-03-31T06:38:55.024Z,7.8
2019-03-31T06:39:56.545Z,7.8
2019-03-31T06:40:57.806Z,7.8
2019-03-31T06:41:59.182Z,7.8
2019-03-31T06:43:00.573Z,7.7
2019-03-31T06:44:01.974Z,7.7
2019-03-31T06:45:03.352Z,7.7
2019-03-31T06:46:04.898Z,7.6
2019-03-31T06:47:06.264Z,7.6
2019-03-31T06:48:07.660Z,7.6
2019-03-31T06:49:09.100Z,7.5
2019-03-31T06:50:10.616Z,7.5
2019-03-31T06:51:12.161Z,7.5
2019-03-31T06:52:13.399Z,7.4
2019-03-31T06:53:14.874Z,7.4
2019-03-31T06:54:16.317Z,7.4
2019-03-31T06:55:17.865Z,7.4
2019-03-31T06:56:19.236Z,7.4
2019-03-31T06:57:20.807Z,7.4
2019-03-31T06:58:23.128Z,7.4
2019-03-31T06:59:24.509Z,7.4
2019-03-31T07:00:25.968Z,7.4
2019-03-31T07:01:27.362Z,7.4
2019-03-31T07:02:28.884Z,7.4
2019-03-31T07:03:30.290Z,7.5
2019-03-31T07:04:31.898Z,7.5
2019-03-31T07:05:33.428Z,7.5
2019-03-31T07:06:34.638Z,7.5
2019-03-31T07:07:36.040Z,7.5
2019-03-31T07:08:37.611Z,7.5
2019-03-31T07:09:39.311Z,7.5
2019-03-31T07:10:40.750Z,7.4
2019-03-31T07:11:42.076Z,7.4
2019-03-31T07:12:43.410Z,7.4
2019-03-31T07:13:44.804Z,7.4
2019-03-31T07:14:46.373Z,7.4
2019-03-31T07:15:47.925Z,7.3
2019-03-31T07:16:49.390Z,7.3
2019-03-31T07:17:50.874Z,7.2
2019-03-31T07:18:52.419Z,7.2
2019-03-31T07:19:54.335Z,7.2
2019-03-31T07:20:55.974Z,7.2
2019-03-31T07:21:57.250Z,7.2
2019-03-31T07:22:58.738Z,7.2
2019-03-31T07:24:00.286Z,7.2
2019-03-31T07:25:02.129Z,7.2
2019-03-31T07:26:03.676Z,7.2
2019-03-31T07:27:05.223Z,7.2
2019-03-31T07:28:06.776Z,7.2
2019-03-31T07:29:08.320Z,7.3
2019-03-31T07:30:09.759Z,7.3
2019-03-31T07:31:11.140Z,7.3
2019-03-31T07:32:12.688Z,7.3
2019-03-31T07:33:14.082Z,7.3
2019-03-31T07:34:15.630Z,7.3
2019-03-31T07:35:20.210Z,7.3
2019-03-31T07:36:21.613Z,7.3
2019-03-31T07:37:23.009Z,7.3
2019-03-31T07:38:40.337Z,7.3
2019-03-31T07:39:47.567Z,7.2
2019-03-31T07:40:49.843Z,7.2
2019-03-31T07:41:52.829Z,7.2
2019-03-31T07:42:55.166Z,7.2
2019-03-31T07:43:56.786Z,7.2
2019-03-31T07:44:58.197Z,7.2
2019-03-31T07:45:59.756Z,7.3
2019-03-31T07:47:01.294Z,7.3
2019-03-31T07:48:02.852Z,7.3
2019-03-31T07:49:04.380Z,7.3
2019-03-31T07:50:05.770Z,7.4
2019-03-31T07:51:07.322Z,7.4
2019-03-31T07:52:08.709Z,7.4
2019-03-31T07:53:10.328Z,7.5
2019-03-31T07:54:11.873Z,7.5
2019-03-31T07:55:13.427Z,7.6
2019-03-31T07:56:17.750Z,7.7
2019-03-31T07:57:19.278Z,7.7
2019-03-31T07:58:20.972Z,7.8
2019-03-31T07:59:22.524Z,7.8
2019-03-31T08:00:24.071Z,7.8
2019-03-31T08:01:25.626Z,7.8
2019-03-31T08:02:27.255Z,7.8
2019-03-31T08:03:28.489Z,7.8
2019-03-31T08:04:30.038Z,7.8
2019-03-31T08:05:38.811Z,7.8
2019-03-31T08:06:40.359Z,7.7
2019-03-31T08:07:41.906Z,7.7
2019-03-31T08:08:43.275Z,7.7
2019-03-31T08:09:44.798Z,7.7
2019-03-31T08:10:46.334Z,7.7
2019-03-31T08:11:47.948Z,7.8
2019-03-31T08:12:49.496Z,7.8
2019-03-31T08:13:51.024Z,7.8
2019-03-31T08:14:52.416Z,7.9
2019-03-31T08:15:53.801Z,7.9
2019-03-31T08:16:55.193Z,7.9
2019-03-31T08:17:56.765Z,7.9
2019-03-31T08:18:58.291Z,7.9
2019-03-31T08:19:59.837Z,7.9
2019-03-31T08:21:01.464Z,7.9
2019-03-31T08:22:03.009Z,7.8
2019-03-31T08:23:04.706Z,7.8
2019-03-31T08:24:08.182Z,7.7
2019-03-31T08:25:09.614Z,7.5
2019-03-31T08:26:10.988Z,7.4
2019-03-31T08:27:12.527Z,7.2
2019-03-31T08:28:14.096Z,7.2
2019-03-31T08:29:15.618Z,7.1
2019-03-31T08:30:17.019Z,7.1
2019-03-31T08:31:18.098Z,7.1
2019-03-31T08:32:19.628Z,7.1
2019-03-31T08:33:21.008Z,7.1
2019-03-31T08:34:22.573Z,7.1
2019-03-31T08:35:24.108Z,7.1
2019-03-31T08:36:25.661Z,7.1
2019-03-31T08:37:27.214Z,7.1
2019-03-31T08:38:28.756Z,7.1
2019-03-31T08:39:30.382Z,7.1
2019-03-31T08:40:31.638Z,7.1
2019-03-31T08:41:33.070Z,7.1
2019-03-31T08:42:34.494Z,7.1
2019-03-31T08:43:36.050Z,7.1
2019-03-31T08:44:37.617Z,7.1
2019-03-31T08:45:39.142Z,7.2
2019-03-31T08:46:40.666Z,7.2
2019-03-31T08:47:42.264Z,7.2
2019-03-31T08:48:43.691Z,7.2
2019-03-31T08:49:45.237Z,7.2
2019-03-31T08:50:46.942Z,7.2
2019-03-31T08:51:48.441Z,7.2
2019-03-31T08:52:49.989Z,7.2
2019-03-31T08:53:51.544Z,7.2
2019-03-31T08:54:52.924Z,7.2
2019-03-31T08:55:54.474Z,7.2
2019-03-31T08:56:55.854Z,7.2
2019-03-31T08:57:57.248Z,7.2
2019-03-31T08:58:58.718Z,7.2
2019-03-31T09:00:00.352Z,7.2
2019-03-31T09:01:01.779Z,7.2
2019-03-31T09:02:05.068Z,7.2
2019-03-31T09:03:06.445Z,7.3
2019-03-31T09:04:08.027Z,7.3
2019-03-31T09:05:09.433Z,7.3
2019-03-31T09:06:11.012Z,7.3
2019-03-31T09:07:12.400Z,7.3
2019-03-31T09:08:13.989Z,7.4
2019-03-31T09:09:15.580Z,7.4
2019-03-31T09:10:16.989Z,7.4
2019-03-31T09:11:18.535Z,7.4
2019-03-31T09:12:20.183Z,7.4
2019-03-31T09:13:21.409Z,7.4
2019-03-31T09:14:22.951Z,7.4
2019-03-31T09:15:24.325Z,7.4
2019-03-31T09:16:25.621Z,7.4
2019-03-31T09:17:27.013Z,7.4
2019-03-31T09:18:28.403Z,7.5
2019-03-31T09:19:29.953Z,7.5
2019-03-31T09:20:31.359Z,7.5
2019-03-31T09:21:32.631Z,7.5
2019-03-31T09:22:34.229Z,7.6
2019-03-31T09:23:35.662Z,7.6
2019-03-31T09:24:37.150Z,7.6
2019-03-31T09:25:38.747Z,7.7
2019-03-31T09:26:40.169Z,7.7
2019-03-31T09:27:41.756Z,7.8
2019-03-31T09:28:43.333Z,7.8
2019-03-31T09:29:44.796Z,7.8
2019-03-31T09:30:46.374Z,7.9
2019-03-31T09:31:47.887Z,7.9
2019-03-31T09:32:49.429Z,7.8
2019-03-31T09:33:50.508Z,7.8
2019-03-31T09:34:52.069Z,7.8
2019-03-31T09:35:53.472Z,7.7
2019-03-31T09:36:54.857Z,7.6
2019-03-31T09:37:56.481Z,7.5
2019-03-31T09:38:58.032Z,7.4
2019-03-31T09:39:59.587Z,7.2
2019-03-31T09:41:01.366Z,7.1
2019-03-31T09:42:02.771Z,7.2
2019-03-31T09:43:04.194Z,7.1
2019-03-31T09:44:05.764Z,7.1
2019-03-31T09:45:07.347Z,7.2
2019-03-31T09:46:08.917Z,7.1
2019-03-31T09:47:10.319Z,7.2
2019-03-31T09:48:11.738Z,7.2
2019-03-31T09:49:13.277Z,7.1
2019-03-31T09:50:18.928Z,7.2
2019-03-31T09:51:20.321Z,7.2
2019-03-31T09:52:21.868Z,7.2
2019-03-31T09:53:23.299Z,7.2
2019-03-31T09:54:24.720Z,7.2
2019-03-31T09:55:26.269Z,7.2
2019-03-31T09:56:27.816Z,7.2
2019-03-31T09:57:29.381Z,7.2
2019-03-31T09:58:30.928Z,7.2
2019-03-31T09:59:32.454Z,7.2
2019-03-31T10:00:33.691Z,7.2
2019-03-31T10:01:35.229Z,7.2
2019-03-31T10:02:36.787Z,7.2
2019-03-31T10:03:38.370Z,7.2
2019-03-31T10:04:39.935Z,7.2
2019-03-31T10:05:41.549Z,7.2
2019-03-31T10:06:42.949Z,7.3
2019-03-31T10:07:44.355Z,7.3
2019-03-31T10:08:45.747Z,7.3
2019-03-31T10:09:47.164Z,7.3
2019-03-31T10:10:48.551Z,7.3
2019-03-31T10:11:49.778Z,7.3
2019-03-31T10:12:51.344Z,7.4
2019-03-31T10:13:52.734Z,7.4
2019-03-31T10:14:55.870Z,7.5
2019-03-31T10:15:57.439Z,7.6
2019-03-31T10:16:58.885Z,7.8
2019-03-31T10:18:00.462Z,7.8
2019-03-31T10:19:01.868Z,7.9
2019-03-31T10:20:03.297Z,7.9
2019-03-31T10:21:04.795Z,7.9
2019-03-31T10:22:06.190Z,7.9
2019-03-31T10:23:07.570Z,7.9
2019-03-31T10:24:09.170Z,7.9
2019-03-31T10:25:14.428Z,7.9
2019-03-31T10:26:33.288Z,7.9
2019-03-31T10:27:34.681Z,7.9
2019-03-31T10:28:36.227Z,7.9
2019-03-31T10:29:37.738Z,7.9
2019-03-31T10:30:39.184Z,7.9
2019-03-31T10:31:40.771Z,7.9
2019-03-31T10:32:42.310Z,7.9
2019-03-31T10:33:43.837Z,7.9
2019-03-31T10:34:45.315Z,7.9
2019-03-31T10:35:46.539Z,7.9
2019-03-31T10:36:47.615Z,7.9
2019-03-31T10:37:48.842Z,7.9
2019-03-31T10:38:50.405Z,7.9
2019-03-31T10:39:51.928Z,7.9
2019-03-31T10:40:53.343Z,7.9
2019-03-31T10:41:54.928Z,7.9
2019-03-31T10:42:56.509Z,7.9
2019-03-31T10:43:58.052Z,7.9
2019-03-31T10:44:59.620Z,7.9
2019-03-31T10:46:01.001Z,7.9
2019-03-31T10:47:02.557Z,7.9
2019-03-31T10:48:03.959Z,7.9
2019-03-31T10:49:05.519Z,7.9
2019-03-31T10:50:07.087Z,7.9
2019-03-31T10:51:08.640Z,7.9
2019-03-31T10:52:10.183Z,7.9
2019-03-31T10:53:11.417Z,7.9
2019-03-31T10:54:12.971Z,7.9
2019-03-31T10:55:14.529Z,7.9
2019-03-31T10:56:16.050Z,7.9
2019-03-31T10:57:17.442Z,7.9
2019-03-31T10:58:18.977Z,7.9
2019-03-31T10:59:20.532Z,7.9
2019-03-31T11:00:22.057Z,7.9
2019-03-31T11:01:23.624Z,7.9
2019-03-31T11:02:25.182Z,7.9
2019-03-31T11:03:26.735Z,7.9
2019-03-31T11:04:28.123Z,7.9
2019-03-31T11:05:29.672Z,7.9
2019-03-31T11:06:31.059Z,7.9
2019-03-31T11:07:32.477Z,7.9
2019-03-31T11:08:34.020Z,7.5
2019-03-31T11:09:35.901Z,7.6
2019-03-31T11:10:37.470Z,7.7
2019-03-31T11:11:38.943Z,7.9
2019-03-31T11:12:40.512Z,7.9
2019-03-31T11:13:42.069Z,7.9
2019-03-31T11:14:43.629Z,7.9
2019-03-31T11:15:45.114Z,7.9
2019-03-31T11:16:46.503Z,7.5
2019-03-31T11:17:48.055Z,7.6
2019-03-31T11:18:49.141Z,7.7
2019-03-31T11:19:50.716Z,7.8
2019-03-31T11:20:52.697Z,7.9
2019-03-31T11:21:54.099Z,7.9
2019-03-31T11:22:55.499Z,7.9
2019-03-31T11:23:57.090Z,7.9
2019-03-31T11:24:58.651Z,7.9
2019-03-31T11:26:00.031Z,7.9
2019-03-31T11:27:01.413Z,7.9
2019-03-31T11:28:03.010Z,7.9
2019-03-31T11:29:04.573Z,7.9
2019-03-31T11:30:06.120Z,7.9
2019-03-31T11:31:07.371Z,7.9
2019-03-31T11:32:08.477Z,7.9
2019-03-31T11:33:09.891Z,7.8
2019-03-31T11:34:11.459Z,7.9
2019-03-31T11:35:13.024Z,7.8
2019-03-31T11:36:14.437Z,7.8
2019-03-31T11:37:16.046Z,7.8
2019-03-31T11:38:17.628Z,7.8
2019-03-31T11:39:19.186Z,7.8
2019-03-31T11:40:20.749Z,7.8
2019-03-31T11:41:22.169Z,7.8
2019-03-31T11:42:23.404Z,7.8
2019-03-31T11:43:24.955Z,7.8
2019-03-31T11:44:29.398Z,7.8
2019-03-31T11:45:30.794Z,7.8
2019-03-31T11:46:32.345Z,7.8
2019-03-31T11:47:33.892Z,7.8
2019-03-31T11:48:35.496Z,7.8
2019-03-31T11:49:37.047Z,7.8
2019-03-31T11:50:38.729Z,7.8
2019-03-31T11:51:40.283Z,7.8
2019-03-31T11:52:41.832Z,7.8
2019-03-31T11:53:43.235Z,7.8
2019-03-31T11:54:47.191Z,7.8
2019-03-31T11:55:48.719Z,7.8
2019-03-31T11:56:49.960Z,7.8
2019-03-31T11:57:51.539Z,7.8
2019-03-31T11:58:52.928Z,7.9
2019-03-31T11:59:54.328Z,7.9
2019-03-31T12:00:55.742Z,7.9
2019-03-31T12:01:57.300Z,7.9
2019-03-31T12:02:58.851Z,7.9
2019-03-31T12:03:59.932Z,7.9
2019-03-31T12:05:01.590Z,7.9
2019-03-31T12:06:02.990Z,7.9
2019-03-31T12:07:04.398Z,7.9
2019-03-31T12:08:05.941Z,7.9
2019-03-31T12:09:07.528Z,7.9
2019-03-31T12:10:08.920Z,7.8
2019-03-31T12:11:10.474Z,7.9
2019-03-31T12:12:12.135Z,7.8
2019-03-31T12:13:13.711Z,7.8
2019-03-31T12:14:15.192Z,7.8
2019-03-31T12:15:16.729Z,7.8
2019-03-31T12:16:18.256Z,7.8
2019-03-31T12:17:19.803Z,7.8
2019-03-31T12:18:21.159Z,7.8
2019-03-31T12:19:22.579Z,7.8
2019-03-31T12:20:24.148Z,7.8
2019-03-31T12:21:25.558Z,7.8
2019-03-31T12:22:26.711Z,7.8
2019-03-31T12:23:28.262Z,7.9
2019-03-31T12:24:29.832Z,7.9
2019-03-31T12:25:31.361Z,7.9
2019-03-31T12:26:32.909Z,7.9
2019-03-31T12:27:34.449Z,7.9
2019-03-31T12:28:36.076Z,7.9
2019-03-31T12:29:37.621Z,7.9
2019-03-31T12:30:39.164Z,7.6
2019-03-31T12:31:40.462Z,7.8
2019-03-31T12:32:41.864Z,7.8
2019-03-31T12:33:43.400Z,7.9
2019-03-31T12:34:44.962Z,7.9
2019-03-31T12:35:46.362Z,7.9
2019-03-31T12:36:47.909Z,7.9
2019-03-31T12:37:49.483Z,7.9
2019-03-31T12:38:54.834Z,7.9
2019-03-31T12:39:56.227Z,7.9
2019-03-31T12:40:57.810Z,7.9
2019-03-31T12:41:59.358Z,7.8
2019-03-31T12:43:00.756Z,7.8
2019-03-31T12:44:02.802Z,7.8
2019-03-31T12:45:04.357Z,7.8
2019-03-31T12:46:05.893Z,7.8
2019-03-31T12:47:07.288Z,7.8
2019-03-31T12:48:08.859Z,7.8
2019-03-31T12:49:10.076Z,7.8
2019-03-31T12:50:11.619Z,7.8
2019-03-31T12:51:12.858Z,7.8
2019-03-31T12:52:14.263Z,7.8
2019-03-31T12:53:15.647Z,7.8
2019-03-31T12:54:17.188Z,7.8
2019-03-31T12:55:18.748Z,7.8
2019-03-31T12:56:20.158Z,7.8
2019-03-31T12:57:21.550Z,7.9
2019-03-31T12:58:22.799Z,7.9
2019-03-31T12:59:28.208Z,7.9
2019-03-31T13:00:29.618Z,7.9
2019-03-31T13:01:31.156Z,7.9
2019-03-31T13:02:32.539Z,7.9
2019-03-31T13:03:33.947Z,7.9
2019-03-31T13:04:35.529Z,7.9
2019-03-31T13:05:36.939Z,7.9
2019-03-31T13:06:38.497Z,7.8
2019-03-31T13:07:40.049Z,7.8
2019-03-31T13:08:41.583Z,7.8
2019-03-31T13:09:43.142Z,7.7
2019-03-31T13:10:44.695Z,7.7
2019-03-31T13:11:46.259Z,7.7
2019-03-31T13:12:47.817Z,7.6
2019-03-31T13:13:49.046Z,7.6
2019-03-31T13:14:50.262Z,7.5
2019-03-31T13:15:51.670Z,7.5
2019-03-31T13:16:53.212Z,7.5
2019-03-31T13:17:54.571Z,7.5
2019-03-31T13:18:55.990Z,7.5
2019-03-31T13:19:57.548Z,7.5
2019-03-31T13:20:59.091Z,7.4
2019-03-31T13:22:00.669Z,7.4
2019-03-31T13:23:02.100Z,7.4
2019-03-31T13:24:03.685Z,7.4
2019-03-31T13:25:05.268Z,7.4
2019-03-31T13:26:06.489Z,7.4
2019-03-31T13:27:08.013Z,7.4
2019-03-31T13:28:09.585Z,7.4
2019-03-31T13:29:11.151Z,7.4
2019-03-31T13:30:12.672Z,7.4
2019-03-31T13:31:14.320Z,7.4
2019-03-31T13:32:15.732Z,7.5
2019-03-31T13:33:17.277Z,7.6
2019-03-31T13:34:18.838Z,7.6
2019-03-31T13:35:20.094Z,7.7
2019-03-31T13:36:21.741Z,7.8
2019-03-31T13:37:23.306Z,7.8
2019-03-31T13:38:24.711Z,7.8
2019-03-31T13:39:26.532Z,7.8
2019-03-31T13:40:28.078Z,7.8
2019-03-31T13:41:29.681Z,7.8
2019-03-31T13:42:31.085Z,7.8
2019-03-31T13:43:32.963Z,7.8
2019-03-31T13:44:34.533Z,7.7
2019-03-31T13:45:35.943Z,7.7
2019-03-31T13:46:37.531Z,7.7
2019-03-31T13:47:39.096Z,7.6
2019-03-31T13:48:40.643Z,7.6
2019-03-31T13:49:42.059Z,7.5
2019-03-31T13:50:43.642Z,7.5
2019-03-31T13:51:45.188Z,7.4
2019-03-31T13:52:46.890Z,7.4
2019-03-31T13:53:48.270Z,7.3
2019-03-31T13:54:49.507Z,7.3
2019-03-31T13:55:51.344Z,7.2
2019-03-31T13:56:58.393Z,7.2
2019-03-31T13:58:23.249Z,7.2
2019-03-31T13:59:25.370Z,7.2
2019-03-31T14:00:27.997Z,7.2
2019-03-31T14:01:29.466Z,7.2
2019-03-31T14:02:30.886Z,7.2
2019-03-31T14:03:32.298Z,7.2
2019-03-31T14:04:53.067Z,7.2
2019-03-31T14:05:54.614Z,7.2
2019-03-31T14:06:56.019Z,7.2
2019-03-31T14:07:57.442Z,7.3
2019-03-31T14:08:58.893Z,7.3
2019-03-31T14:10:00.814Z,7.3
2019-03-31T14:11:02.305Z,7.3